createdAt,value
2023-02-05T00:04:27.343Z,16.90
2023-02-05T00:14:34.336Z,16.91
2023-02-05T00:24:41.089Z,16.92
2023-02-05T00:34:47.310Z,16.92
2023-02-05T00:44:53.632Z,16.91
2023-02-05T00:55:00.370Z,16.90
2023-02-05T01:05:06.931Z,16.90
2023-02-05T01:15:13.720Z,16.90
2023-02-05T01:25:20.544Z,16.90
2023-02-05T01:35:27.005Z,16.91
2023-02-05T01:45:34.596Z,16.90
2023-02-05T01:55:42.168Z,16.91
2023-02-05T02:05:49.076Z,16.90
2023-02-05T02:15:56.124Z,16.90
2023-02-05T02:26:02.816Z,16.92
2023-02-05T02:36:10.501Z,16.88
2023-02-05T02:46:17.039Z,16.88
2023-02-05T02:56:24.213Z,16.88
2023-02-05T03:06:30.925Z,16.90
2023-02-05T03:16:37.159Z,16.90
2023-02-05T03:26:44.388Z,16.88
2023-02-05T03:36:50.973Z,16.90
2023-02-05T03:46:57.448Z,16.88
2023-02-05T03:57:04.721Z,16.86
2023-02-05T04:07:11.127Z,16.86
2023-02-05T04:17:18.401Z,16.85
2023-02-05T04:27:25.326Z,16.85
2023-02-05T04:37:32.263Z,16.88
2023-02-05T04:47:39.490Z,16.86
2023-02-05T04:57:46.731Z,16.84
2023-02-05T05:07:53.697Z,16.84
2023-02-05T05:18:00.528Z,16.85
2023-02-05T05:28:07.503Z,16.84
2023-02-05T05:38:14.641Z,16.88
2023-02-05T05:48:21.826Z,16.92
2023-02-05T05:58:29.375Z,16.93
2023-02-05T06:08:36.946Z,16.98
2023-02-05T06:18:44.022Z,16.98
2023-02-05T06:28:51.126Z,16.98
2023-02-05T06:38:58.022Z,16.91
2023-02-05T06:49:05.189Z,16.88
2023-02-05T06:59:12.184Z,16.88
2023-02-05T07:09:18.971Z,16.90
2023-02-05T07:19:26.318Z,16.91
2023-02-05T07:29:33.316Z,16.93
2023-02-05T07:39:40.272Z,16.95
2023-02-05T07:49:47.224Z,16.95
2023-02-05T07:59:54.530Z,17.00
2023-02-05T08:10:01.519Z,17.04
2023-02-05T08:20:08.724Z,17.05
2023-02-05T08:30:15.592Z,17.05
2023-02-05T08:40:23.087Z,16.90
2023-02-05T08:50:30.339Z,16.90
2023-02-05T09:00:37.605Z,17.02
2023-02-05T09:10:44.843Z,17.02
2023-02-05T09:20:51.819Z,17.11
2023-02-05T09:30:59.040Z,17.09
2023-02-05T09:41:05.777Z,17.28
2023-02-05T09:51:12.867Z,17.28
2023-02-05T10:01:20.273Z,17.29
2023-02-05T10:11:27.263Z,17.20
2023-02-05T10:21:32.945Z,17.20
2023-02-05T10:31:40.094Z,15.80
2023-02-05T10:41:47.230Z,16.02
2023-02-05T10:51:54.252Z,16.38
2023-02-05T11:02:01.269Z,16.56
2023-02-05T11:12:07.877Z,16.75
2023-02-05T11:22:15.144Z,16.97
2023-02-05T11:32:22.785Z,16.97
2023-02-05T11:42:29.343Z,17.00
2023-02-05T11:52:36.644Z,17.07
2023-02-05T12:02:43.567Z,17.14
2023-02-05T12:12:50.413Z,17.14
2023-02-05T12:22:57.699Z,17.16
2023-02-05T12:33:04.417Z,17.16
2023-02-05T12:43:10.887Z,17.16
2023-02-05T12:53:18.268Z,17.12
2023-02-05T13:03:24.765Z,17.12
2023-02-05T13:13:31.659Z,17.16
2023-02-05T13:23:37.834Z,17.18
2023-02-05T13:33:45.121Z,17.19
2023-02-05T13:43:52.195Z,17.18
2023-02-05T13:53:59.490Z,17.09
2023-02-05T14:04:05.887Z,17.09
2023-02-05T14:14:13.415Z,17.09
2023-02-05T14:24:19.968Z,17.09
2023-02-05T14:34:26.954Z,17.09
2023-02-05T14:44:34.432Z,17.09
2023-02-05T14:54:41.304Z,17.07
2023-02-05T15:04:48.345Z,17.07
2023-02-05T15:14:55.408Z,17.05
2023-02-05T15:25:02.594Z,17.00
2023-02-05T15:35:09.526Z,17.00
2023-02-05T15:45:16.267Z,16.99
2023-02-05T15:55:23.193Z,16.98
2023-02-05T16:05:29.567Z,16.99
2023-02-05T16:15:36.597Z,16.97
2023-02-05T16:25:43.498Z,16.93
2023-02-05T16:35:49.776Z,16.93
2023-02-05T16:45:56.849Z,16.92
2023-02-05T16:56:03.620Z,16.92
2023-02-05T17:06:10.732Z,16.92
2023-02-05T17:16:18.131Z,16.90
2023-02-05T17:26:25.534Z,16.90
2023-02-05T17:36:31.956Z,16.91
2023-02-05T17:46:38.676Z,16.85
2023-02-05T17:56:46.032Z,16.86
2023-02-05T18:06:53.224Z,16.80
2023-02-05T18:16:59.829Z,16.80
2023-02-05T18:27:07.433Z,16.77
2023-02-05T18:37:14.153Z,16.69
2023-02-05T18:47:21.185Z,16.63
2023-02-05T18:57:28.612Z,16.59
2023-02-05T19:07:35.533Z,16.54
2023-02-05T19:17:42.667Z,16.55
2023-02-05T19:27:49.363Z,16.52
2023-02-05T19:37:56.248Z,16.56
2023-02-05T19:48:03.337Z,16.54
2023-02-05T19:58:10.703Z,16.54
2023-02-05T20:08:17.784Z,16.52
2023-02-05T20:18:24.806Z,16.54
2023-02-05T20:28:31.705Z,16.52
2023-02-05T20:38:38.784Z,16.50
2023-02-05T20:48:45.845Z,16.52
2023-02-05T20:58:52.853Z,16.49
2023-02-05T21:08:59.672Z,16.50
2023-02-05T21:19:06.906Z,16.50
2023-02-05T21:29:13.905Z,16.52
2023-02-05T21:39:20.731Z,16.45
2023-02-05T21:49:27.693Z,16.45
2023-02-05T21:59:34.125Z,16.45
2023-02-05T22:09:41.355Z,16.45
2023-02-05T22:19:47.809Z,16.45
2023-02-05T22:29:54.416Z,16.43
2023-02-05T22:40:01.277Z,16.45
2023-02-05T22:50:08.236Z,16.45
2023-02-05T23:00:15.399Z,16.45
2023-02-05T23:10:22.070Z,16.45
2023-02-05T23:20:29.191Z,16.43
2023-02-05T23:30:35.486Z,16.47
2023-02-05T23:40:42.474Z,16.43
2023-02-05T23:50:49.252Z,16.45
